sensor_id;sensor_type;location;lat;lon;timestamp;P1;durP1;ratioP1;P2;durP2;ratioP2
46463;SDS011;32161;48.148;-1.554;2024-02-21T00:01:53;1.90;;;1.17;;
46463;SDS011;32161;48.148;-1.554;2024-02-21T00:04:24;1.17;;;1.05;;
46463;SDS011;32161;48.148;-1.554;2024-02-21T00:09:19;1.70;;;1.02;;
46463;SDS011;32161;48.148;-1.554;2024-02-21T00:11:47;1.48;;;1.25;;
46463;SDS011;32161;48.148;-1.554;2024-02-21T00:14:14;1.30;;;1.20;;
46463;SDS011;32161;48.148;-1.554;2024-02-21T00:16:43;3.45;;;0.98;;
46463;SDS011;32161;48.148;-1.554;2024-02-21T00:19:11;1.95;;;1.05;;
46463;SDS011;32161;48.148;-1.554;2024-02-21T00:21:39;1.42;;;1.02;;
46463;SDS011;32161;48.148;-1.554;2024-02-21T00:24:07;2.10;;;0.93;;
46463;SDS011;32161;48.148;-1.554;2024-02-21T00:26:34;2.47;;;1.02;;
46463;SDS011;32161;48.148;-1.554;2024-02-21T00:29:02;1.42;;;0.95;;
46463;SDS011;32161;48.148;-1.554;2024-02-21T00:31:30;1.17;;;1.10;;
46463;SDS011;32161;48.148;-1.554;2024-02-21T00:33:59;3.13;;;1.88;;
46463;SDS011;32161;48.148;-1.554;2024-02-21T00:36:27;1.75;;;1.30;;
46463;SDS011;32161;48.148;-1.554;2024-02-21T00:38:54;2.22;;;1.23;;
46463;SDS011;32161;48.148;-1.554;2024-02-21T00:41:22;3.13;;;1.15;;
46463;SDS011;32161;48.148;-1.554;2024-02-21T00:43:49;2.83;;;1.35;;
46463;SDS011;32161;48.148;-1.554;2024-02-21T00:46:17;1.45;;;1.25;;
46463;SDS011;32161;48.148;-1.554;2024-02-21T00:48:44;2.97;;;1.40;;
46463;SDS011;32161;48.148;-1.554;2024-02-21T00:51:13;2.33;;;1.60;;
46463;SDS011;32161;48.148;-1.554;2024-02-21T00:53:41;3.58;;;1.65;;
46463;SDS011;32161;48.148;-1.554;2024-02-21T00:56:09;4.20;;;1.73;;
46463;SDS011;32161;48.148;-1.554;2024-02-21T00:58:37;2.47;;;1.50;;
46463;SDS011;32161;48.148;-1.554;2024-02-21T01:01:04;1.80;;;1.20;;
46463;SDS011;32161;48.148;-1.554;2024-02-21T01:03:32;3.28;;;1.65;;
46463;SDS011;32161;48.148;-1.554;2024-02-21T01:05:59;3.60;;;1.70;;
46463;SDS011;32161;48.148;-1.554;2024-02-21T01:08:28;6.50;;;1.67;;
46463;SDS011;32161;48.148;-1.554;2024-02-21T01:10:56;3.88;;;1.35;;
46463;SDS011;32161;48.148;-1.554;2024-02-21T01:13:23;5.75;;;1.80;;
46463;SDS011;32161;48.148;-1.554;2024-02-21T01:15:51;4.00;;;1.50;;
46463;SDS011;32161;48.148;-1.554;2024-02-21T01:18:19;1.70;;;1.50;;
46463;SDS011;32161;48.148;-1.554;2024-02-21T01:20:46;6.00;;;1.60;;
46463;SDS011;32161;48.148;-1.554;2024-02-21T01:23:14;4.15;;;1.80;;
46463;SDS011;32161;48.148;-1.554;2024-02-21T01:25:43;4.35;;;1.77;;
46463;SDS011;32161;48.148;-1.554;2024-02-21T01:28:11;5.35;;;2.15;;
46463;SDS011;32161;48.148;-1.554;2024-02-21T01:30:38;5.45;;;2.22;;
46463;SDS011;32161;48.148;-1.554;2024-02-21T01:33:06;6.25;;;2.00;;
46463;SDS011;32161;48.148;-1.554;2024-02-21T01:35:35;7.57;;;2.78;;
46463;SDS011;32161;48.148;-1.554;2024-02-21T01:38:03;10.15;;;3.15;;
46463;SDS011;32161;48.148;-1.554;2024-02-21T01:40:30;3.47;;;2.63;;
46463;SDS011;32161;48.148;-1.554;2024-02-21T01:42:59;2.72;;;2.53;;
46463;SDS011;32161;48.148;-1.554;2024-02-21T01:45:27;7.63;;;2.60;;
46463;SDS011;32161;48.148;-1.554;2024-02-21T01:47:55;2.40;;;2.20;;
46463;SDS011;32161;48.148;-1.554;2024-02-21T01:50:22;3.33;;;2.30;;
46463;SDS011;32161;48.148;-1.554;2024-02-21T01:52:51;3.58;;;2.25;;
46463;SDS011;32161;48.148;-1.554;2024-02-21T01:55:18;5.82;;;1.95;;
46463;SDS011;32161;48.148;-1.554;2024-02-21T01:57:46;5.60;;;2.58;;
46463;SDS011;32161;48.148;-1.554;2024-02-21T02:00:16;8.00;;;2.03;;
46463;SDS011;32161;48.148;-1.554;2024-02-21T02:02:43;3.15;;;1.77;;
46463;SDS011;32161;48.148;-1.554;2024-02-21T02:05:12;7.72;;;3.10;;
46463;SDS011;32161;48.148;-1.554;2024-02-21T02:07:40;4.47;;;1.70;;
46463;SDS011;32161;48.148;-1.554;2024-02-21T02:10:07;6.00;;;1.52;;
46463;SDS011;32161;48.148;-1.554;2024-02-21T02:12:36;5.50;;;1.45;;
46463;SDS011;32161;48.148;-1.554;2024-02-21T02:15:04;3.30;;;2.10;;
46463;SDS011;32161;48.148;-1.554;2024-02-21T02:17:33;4.35;;;1.60;;
46463;SDS011;32161;48.148;-1.554;2024-02-21T02:20:01;5.78;;;2.20;;
46463;SDS011;32161;48.148;-1.554;2024-02-21T02:22:30;4.03;;;2.00;;
46463;SDS011;32161;48.148;-1.554;2024-02-21T02:25:01;5.10;;;2.67;;
46463;SDS011;32161;48.148;-1.554;2024-02-21T02:27:29;4.50;;;2.42;;
46463;SDS011;32161;48.148;-1.554;2024-02-21T02:29:57;2.33;;;2.13;;
46463;SDS011;32161;48.148;-1.554;2024-02-21T02:32:25;6.38;;;2.22;;
46463;SDS011;32161;48.148;-1.554;2024-02-21T02:34:52;4.63;;;2.20;;
46463;SDS011;32161;48.148;-1.554;2024-02-21T02:37:20;2.45;;;2.25;;
46463;SDS011;32161;48.148;-1.554;2024-02-21T02:39:48;8.50;;;2.72;;
46463;SDS011;32161;48.148;-1.554;2024-02-21T02:42:17;4.78;;;2.80;;
46463;SDS011;32161;48.148;-1.554;2024-02-21T02:44:44;4.47;;;2.60;;
46463;SDS011;32161;48.148;-1.554;2024-02-21T02:47:12;4.30;;;2.03;;
46463;SDS011;32161;48.148;-1.554;2024-02-21T02:49:39;3.08;;;2.10;;
46463;SDS011;32161;48.148;-1.554;2024-02-21T02:52:07;6.10;;;2.47;;
46463;SDS011;32161;48.148;-1.554;2024-02-21T02:54:34;6.10;;;2.67;;
46463;SDS011;32161;48.148;-1.554;2024-02-21T02:57:02;3.58;;;1.80;;
46463;SDS011;32161;48.148;-1.554;2024-02-21T02:59:32;2.40;;;1.80;;
46463;SDS011;32161;48.148;-1.554;2024-02-21T03:02:00;3.38;;;1.80;;
46463;SDS011;32161;48.148;-1.554;2024-02-21T03:04:27;3.25;;;1.60;;
46463;SDS011;32161;48.148;-1.554;2024-02-21T03:06:55;2.95;;;1.52;;
46463;SDS011;32161;48.148;-1.554;2024-02-21T03:09:22;2.88;;;1.65;;
46463;SDS011;32161;48.148;-1.554;2024-02-21T03:11:50;2.30;;;1.52;;
46463;SDS011;32161;48.148;-1.554;2024-02-21T03:14:22;4.88;;;1.88;;
46463;SDS011;32161;48.148;-1.554;2024-02-21T03:16:52;2.47;;;1.60;;
46463;SDS011;32161;48.148;-1.554;2024-02-21T03:19:20;3.40;;;1.45;;
46463;SDS011;32161;48.148;-1.554;2024-02-21T03:21:47;3.97;;;1.80;;
46463;SDS011;32161;48.148;-1.554;2024-02-21T03:24:15;2.15;;;1.90;;
46463;SDS011;32161;48.148;-1.554;2024-02-21T03:26:43;5.65;;;2.00;;
46463;SDS011;32161;48.148;-1.554;2024-02-21T03:29:11;2.83;;;2.10;;
46463;SDS011;32161;48.148;-1.554;2024-02-21T03:31:39;3.47;;;1.92;;
46463;SDS011;32161;48.148;-1.554;2024-02-21T03:34:09;4.20;;;2.03;;
46463;SDS011;32161;48.148;-1.554;2024-02-21T03:36:37;1.92;;;1.83;;
46463;SDS011;32161;48.148;-1.554;2024-02-21T03:39:05;4.53;;;2.67;;
46463;SDS011;32161;48.148;-1.554;2024-02-21T03:41:33;2.47;;;2.20;;
46463;SDS011;32161;48.148;-1.554;2024-02-21T03:44:00;4.25;;;2.10;;
46463;SDS011;32161;48.148;-1.554;2024-02-21T03:46:28;6.25;;;2.10;;
46463;SDS011;32161;48.148;-1.554;2024-02-21T03:48:57;5.22;;;2.15;;
46463;SDS011;32161;48.148;-1.554;2024-02-21T03:51:27;5.25;;;1.73;;
46463;SDS011;32161;48.148;-1.554;2024-02-21T03:53:54;4.53;;;2.42;;
46463;SDS011;32161;48.148;-1.554;2024-02-21T03:56:22;3.95;;;2.80;;
46463;SDS011;32161;48.148;-1.554;2024-02-21T03:58:50;2.90;;;2.08;;
46463;SDS011;32161;48.148;-1.554;2024-02-21T04:01:17;1.98;;;1.55;;
46463;SDS011;32161;48.148;-1.554;2024-02-21T04:03:45;4.97;;;2.50;;
46463;SDS011;32161;48.148;-1.554;2024-02-21T04:06:12;2.38;;;1.83;;
46463;SDS011;32161;48.148;-1.554;2024-02-21T04:08:41;7.55;;;2.47;;
46463;SDS011;32161;48.148;-1.554;2024-02-21T04:11:09;2.60;;;2.30;;
46463;SDS011;32161;48.148;-1.554;2024-02-21T04:13:36;2.50;;;2.30;;
46463;SDS011;32161;48.148;-1.554;2024-02-21T04:16:04;5.78;;;2.25;;
46463;SDS011;32161;48.148;-1.554;2024-02-21T04:18:32;4.05;;;2.35;;
46463;SDS011;32161;48.148;-1.554;2024-02-21T04:20:59;4.57;;;2.00;;
46463;SDS011;32161;48.148;-1.554;2024-02-21T04:23:27;7.65;;;1.77;;
46463;SDS011;32161;48.148;-1.554;2024-02-21T04:25:56;4.43;;;2.00;;
46463;SDS011;32161;48.148;-1.554;2024-02-21T04:28:23;2.40;;;1.90;;
46463;SDS011;32161;48.148;-1.554;2024-02-21T04:30:51;4.75;;;2.15;;
46463;SDS011;32161;48.148;-1.554;2024-02-21T04:33:19;3.50;;;1.83;;
46463;SDS011;32161;48.148;-1.554;2024-02-21T04:35:46;3.92;;;2.00;;
46463;SDS011;32161;48.148;-1.554;2024-02-21T04:38:14;5.25;;;2.15;;
46463;SDS011;32161;48.148;-1.554;2024-02-21T04:40:41;5.80;;;2.22;;
46463;SDS011;32161;48.148;-1.554;2024-02-21T04:43:10;6.32;;;2.00;;
46463;SDS011;32161;48.148;-1.554;2024-02-21T04:45:38;2.22;;;1.60;;
46463;SDS011;32161;48.148;-1.554;2024-02-21T04:48:06;2.97;;;1.70;;
46463;SDS011;32161;48.148;-1.554;2024-02-21T04:50:34;3.08;;;1.85;;
46463;SDS011;32161;48.148;-1.554;2024-02-21T04:53:02;3.28;;;1.55;;
46463;SDS011;32161;48.148;-1.554;2024-02-21T04:55:30;4.80;;;1.65;;
46463;SDS011;32161;48.148;-1.554;2024-02-21T04:57:57;6.82;;;2.00;;
46463;SDS011;32161;48.148;-1.554;2024-02-21T05:00:28;3.97;;;1.67;;
46463;SDS011;32161;48.148;-1.554;2024-02-21T05:02:56;1.95;;;1.38;;
46463;SDS011;32161;48.148;-1.554;2024-02-21T05:05:23;5.68;;;1.60;;
46463;SDS011;32161;48.148;-1.554;2024-02-21T05:07:51;2.78;;;1.52;;
46463;SDS011;32161;48.148;-1.554;2024-02-21T05:10:19;1.30;;;1.20;;
46463;SDS011;32161;48.148;-1.554;2024-02-21T05:12:46;2.63;;;1.45;;
46463;SDS011;32161;48.148;-1.554;2024-02-21T05:15:14;2.13;;;1.10;;
46463;SDS011;32161;48.148;-1.554;2024-02-21T05:17:43;9.63;;;1.67;;
46463;SDS011;32161;48.148;-1.554;2024-02-21T05:20:10;5.32;;;1.63;;
46463;SDS011;32161;48.148;-1.554;2024-02-21T05:22:38;1.42;;;1.30;;
46463;SDS011;32161;48.148;-1.554;2024-02-21T05:25:06;3.47;;;1.40;;
46463;SDS011;32161;48.148;-1.554;2024-02-21T05:27:34;3.65;;;1.20;;
46463;SDS011;32161;48.148;-1.554;2024-02-21T05:30:04;3.33;;;1.40;;
46463;SDS011;32161;48.148;-1.554;2024-02-21T05:32:33;2.13;;;1.42;;
46463;SDS011;32161;48.148;-1.554;2024-02-21T05:35:02;4.10;;;1.52;;
46463;SDS011;32161;48.148;-1.554;2024-02-21T05:37:30;3.35;;;1.55;;
46463;SDS011;32161;48.148;-1.554;2024-02-21T05:39:57;2.08;;;1.60;;
46463;SDS011;32161;48.148;-1.554;2024-02-21T05:42:25;3.42;;;1.35;;
46463;SDS011;32161;48.148;-1.554;2024-02-21T05:44:52;2.63;;;1.60;;
46463;SDS011;32161;48.148;-1.554;2024-02-21T05:47:20;2.78;;;1.83;;
46463;SDS011;32161;48.148;-1.554;2024-02-21T05:49:48;4.43;;;1.60;;
46463;SDS011;32161;48.148;-1.554;2024-02-21T05:52:20;3.28;;;1.30;;
46463;SDS011;32161;48.148;-1.554;2024-02-21T05:54:48;2.58;;;1.40;;
46463;SDS011;32161;48.148;-1.554;2024-02-21T05:57:16;1.52;;;1.40;;
46463;SDS011;32161;48.148;-1.554;2024-02-21T05:59:44;4.80;;;1.40;;
46463;SDS011;32161;48.148;-1.554;2024-02-21T06:02:11;4.20;;;1.65;;
46463;SDS011;32161;48.148;-1.554;2024-02-21T06:04:39;2.30;;;1.20;;
46463;SDS011;32161;48.148;-1.554;2024-02-21T06:07:08;2.67;;;1.25;;
46463;SDS011;32161;48.148;-1.554;2024-02-21T06:09:36;2.45;;;1.55;;
46463;SDS011;32161;48.148;-1.554;2024-02-21T06:12:04;0.95;;;0.80;;
46463;SDS011;32161;48.148;-1.554;2024-02-21T06:14:32;3.05;;;1.10;;
46463;SDS011;32161;48.148;-1.554;2024-02-21T06:17:00;1.90;;;1.20;;
46463;SDS011;32161;48.148;-1.554;2024-02-21T06:19:27;1.55;;;1.02;;
46463;SDS011;32161;48.148;-1.554;2024-02-21T06:21:55;1.48;;;1.20;;
46463;SDS011;32161;48.148;-1.554;2024-02-21T06:24:23;3.28;;;2.13;;
46463;SDS011;32161;48.148;-1.554;2024-02-21T06:26:51;4.97;;;1.48;;
46463;SDS011;32161;48.148;-1.554;2024-02-21T06:29:19;1.40;;;1.30;;
46463;SDS011;32161;48.148;-1.554;2024-02-21T06:31:47;1.70;;;0.95;;
46463;SDS011;32161;48.148;-1.554;2024-02-21T06:34:14;3.53;;;1.58;;
46463;SDS011;32161;48.148;-1.554;2024-02-21T06:36:42;2.30;;;1.60;;
46463;SDS011;32161;48.148;-1.554;2024-02-21T06:39:11;3.17;;;1.50;;
46463;SDS011;32161;48.148;-1.554;2024-02-21T06:41:39;4.70;;;1.60;;
46463;SDS011;32161;48.148;-1.554;2024-02-21T06:44:08;2.85;;;1.70;;
46463;SDS011;32161;48.148;-1.554;2024-02-21T06:46:35;1.88;;;1.60;;
46463;SDS011;32161;48.148;-1.554;2024-02-21T06:49:03;2.90;;;2.05;;
46463;SDS011;32161;48.148;-1.554;2024-02-21T06:51:31;5.25;;;1.90;;
46463;SDS011;32161;48.148;-1.554;2024-02-21T06:53:59;9.63;;;2.33;;
46463;SDS011;32161;48.148;-1.554;2024-02-21T06:56:27;3.45;;;2.35;;
46463;SDS011;32161;48.148;-1.554;2024-02-21T06:58:55;6.47;;;2.15;;
46463;SDS011;32161;48.148;-1.554;2024-02-21T07:01:24;7.32;;;1.90;;
46463;SDS011;32161;48.148;-1.554;2024-02-21T07:03:51;4.45;;;2.70;;
46463;SDS011;32161;48.148;-1.554;2024-02-21T07:06:19;3.08;;;2.45;;
46463;SDS011;32161;48.148;-1.554;2024-02-21T07:08:47;7.65;;;2.47;;
46463;SDS011;32161;48.148;-1.554;2024-02-21T07:11:14;5.90;;;2.97;;
46463;SDS011;32161;48.148;-1.554;2024-02-21T07:13:42;5.80;;;2.53;;
46463;SDS011;32161;48.148;-1.554;2024-02-21T07:16:10;7.57;;;3.33;;
46463;SDS011;32161;48.148;-1.554;2024-02-21T07:18:38;7.28;;;3.72;;
46463;SDS011;32161;48.148;-1.554;2024-02-21T07:21:06;7.95;;;2.70;;
46463;SDS011;32161;48.148;-1.554;2024-02-21T07:23:33;5.28;;;2.78;;
46463;SDS011;32161;48.148;-1.554;2024-02-21T07:26:01;3.75;;;3.00;;
46463;SDS011;32161;48.148;-1.554;2024-02-21T07:28:30;10.07;;;2.88;;
46463;SDS011;32161;48.148;-1.554;2024-02-21T07:30:58;8.30;;;2.60;;
46463;SDS011;32161;48.148;-1.554;2024-02-21T07:33:26;6.72;;;2.95;;
46463;SDS011;32161;48.148;-1.554;2024-02-21T07:35:57;6.03;;;2.80;;
46463;SDS011;32161;48.148;-1.554;2024-02-21T07:38:24;8.30;;;2.65;;
46463;SDS011;32161;48.148;-1.554;2024-02-21T07:40:52;10.18;;;3.28;;
46463;SDS011;32161;48.148;-1.554;2024-02-21T07:43:19;4.38;;;3.25;;
46463;SDS011;32161;48.148;-1.554;2024-02-21T07:45:47;8.23;;;3.15;;
46463;SDS011;32161;48.148;-1.554;2024-02-21T07:48:15;7.85;;;2.78;;
46463;SDS011;32161;48.148;-1.554;2024-02-21T07:50:44;9.48;;;3.13;;
46463;SDS011;32161;48.148;-1.554;2024-02-21T07:53:14;8.38;;;2.65;;
46463;SDS011;32161;48.148;-1.554;2024-02-21T07:55:42;4.40;;;2.58;;
46463;SDS011;32161;48.148;-1.554;2024-02-21T07:58:10;10.52;;;3.20;;
46463;SDS011;32161;48.148;-1.554;2024-02-21T08:00:37;7.40;;;3.13;;
46463;SDS011;32161;48.148;-1.554;2024-02-21T08:03:05;6.38;;;2.65;;
46463;SDS011;32161;48.148;-1.554;2024-02-21T08:05:34;9.30;;;4.15;;
46463;SDS011;32161;48.148;-1.554;2024-02-21T08:08:01;5.68;;;2.90;;
46463;SDS011;32161;48.148;-1.554;2024-02-21T08:10:31;9.38;;;3.25;;
46463;SDS011;32161;48.148;-1.554;2024-02-21T08:12:58;10.77;;;3.38;;
46463;SDS011;32161;48.148;-1.554;2024-02-21T08:15:26;10.25;;;3.30;;
46463;SDS011;32161;48.148;-1.554;2024-02-21T08:17:54;11.93;;;3.22;;
46463;SDS011;32161;48.148;-1.554;2024-02-21T08:20:24;10.27;;;3.33;;
46463;SDS011;32161;48.148;-1.554;2024-02-21T08:22:52;10.82;;;3.38;;
46463;SDS011;32161;48.148;-1.554;2024-02-21T08:25:19;6.88;;;3.85;;
46463;SDS011;32161;48.148;-1.554;2024-02-21T08:27:48;15.70;;;4.60;;
46463;SDS011;32161;48.148;-1.554;2024-02-21T08:30:17;11.25;;;4.13;;
46463;SDS011;32161;48.148;-1.554;2024-02-21T08:32:45;10.48;;;3.72;;
46463;SDS011;32161;48.148;-1.554;2024-02-21T08:35:12;10.13;;;3.53;;
46463;SDS011;32161;48.148;-1.554;2024-02-21T08:37:40;11.77;;;3.80;;
46463;SDS011;32161;48.148;-1.554;2024-02-21T08:40:09;6.88;;;3.60;;
46463;SDS011;32161;48.148;-1.554;2024-02-21T08:42:38;8.40;;;3.58;;
46463;SDS011;32161;48.148;-1.554;2024-02-21T08:45:09;7.18;;;3.78;;
46463;SDS011;32161;48.148;-1.554;2024-02-21T08:47:39;8.52;;;3.83;;
46463;SDS011;32161;48.148;-1.554;2024-02-21T08:50:07;4.85;;;3.38;;
46463;SDS011;32161;48.148;-1.554;2024-02-21T08:52:36;6.28;;;3.50;;
46463;SDS011;32161;48.148;-1.554;2024-02-21T08:55:04;7.13;;;3.90;;
46463;SDS011;32161;48.148;-1.554;2024-02-21T08:57:32;9.90;;;3.42;;
46463;SDS011;32161;48.148;-1.554;2024-02-21T09:00:03;9.55;;;3.90;;
46463;SDS011;32161;48.148;-1.554;2024-02-21T09:02:37;8.32;;;3.40;;
46463;SDS011;32161;48.148;-1.554;2024-02-21T09:05:08;11.43;;;3.58;;
46463;SDS011;32161;48.148;-1.554;2024-02-21T09:07:35;9.02;;;3.78;;
46463;SDS011;32161;48.148;-1.554;2024-02-21T09:10:03;10.10;;;3.63;;
46463;SDS011;32161;48.148;-1.554;2024-02-21T09:12:32;8.70;;;3.47;;
46463;SDS011;32161;48.148;-1.554;2024-02-21T09:14:59;12.43;;;4.25;;
46463;SDS011;32161;48.148;-1.554;2024-02-21T09:17:27;7.68;;;3.90;;
46463;SDS011;32161;48.148;-1.554;2024-02-21T09:19:57;10.35;;;4.07;;
46463;SDS011;32161;48.148;-1.554;2024-02-21T09:22:28;6.38;;;3.35;;
46463;SDS011;32161;48.148;-1.554;2024-02-21T09:24:56;10.60;;;4.07;;
46463;SDS011;32161;48.148;-1.554;2024-02-21T09:27:24;7.93;;;3.75;;
46463;SDS011;32161;48.148;-1.554;2024-02-21T09:29:52;6.13;;;3.95;;
46463;SDS011;32161;48.148;-1.554;2024-02-21T09:32:19;9.77;;;4.10;;
46463;SDS011;32161;48.148;-1.554;2024-02-21T09:34:47;12.05;;;4.90;;
46463;SDS011;32161;48.148;-1.554;2024-02-21T09:37:16;7.75;;;4.25;;
46463;SDS011;32161;48.148;-1.554;2024-02-21T09:39:43;7.15;;;3.85;;
46463;SDS011;32161;48.148;-1.554;2024-02-21T09:42:13;7.72;;;3.78;;
46463;SDS011;32161;48.148;-1.554;2024-02-21T09:44:45;11.73;;;3.92;;
46463;SDS011;32161;48.148;-1.554;2024-02-21T09:47:16;12.05;;;4.22;;
46463;SDS011;32161;48.148;-1.554;2024-02-21T09:49:51;8.15;;;3.67;;
46463;SDS011;32161;48.148;-1.554;2024-02-21T09:54:52;8.88;;;4.72;;
46463;SDS011;32161;48.148;-1.554;2024-02-21T09:57:22;9.00;;;4.47;;
46463;SDS011;32161;48.148;-1.554;2024-02-21T09:59:50;11.77;;;4.55;;
46463;SDS011;32161;48.148;-1.554;2024-02-21T10:02:19;8.20;;;4.32;;
46463;SDS011;32161;48.148;-1.554;2024-02-21T10:04:47;15.25;;;5.10;;
46463;SDS011;32161;48.148;-1.554;2024-02-21T10:07:14;11.45;;;4.18;;
46463;SDS011;32161;48.148;-1.554;2024-02-21T10:09:45;15.75;;;4.78;;
46463;SDS011;32161;48.148;-1.554;2024-02-21T10:12:14;15.65;;;4.30;;
46463;SDS011;32161;48.148;-1.554;2024-02-21T10:14:44;6.93;;;3.80;;
46463;SDS011;32161;48.148;-1.554;2024-02-21T10:17:15;9.82;;;3.90;;
46463;SDS011;32161;48.148;-1.554;2024-02-21T10:19:45;14.27;;;5.63;;
46463;SDS011;32161;48.148;-1.554;2024-02-21T10:22:13;7.65;;;3.58;;
46463;SDS011;32161;48.148;-1.554;2024-02-21T10:24:47;10.50;;;3.60;;
46463;SDS011;32161;48.148;-1.554;2024-02-21T10:27:15;11.38;;;3.30;;
46463;SDS011;32161;48.148;-1.554;2024-02-21T10:29:42;8.88;;;3.28;;
46463;SDS011;32161;48.148;-1.554;2024-02-21T10:32:17;15.35;;;4.35;;
46463;SDS011;32161;48.148;-1.554;2024-02-21T10:34:44;7.80;;;2.95;;
46463;SDS011;32161;48.148;-1.554;2024-02-21T10:37:16;11.18;;;3.20;;
46463;SDS011;32161;48.148;-1.554;2024-02-21T10:39:44;10.50;;;3.35;;
46463;SDS011;32161;48.148;-1.554;2024-02-21T10:42:13;7.93;;;3.42;;
46463;SDS011;32161;48.148;-1.554;2024-02-21T10:44:43;13.85;;;3.97;;
46463;SDS011;32161;48.148;-1.554;2024-02-21T10:47:16;12.95;;;3.15;;
46463;SDS011;32161;48.148;-1.554;2024-02-21T10:49:48;11.15;;;3.38;;
46463;SDS011;32161;48.148;-1.554;2024-02-21T10:52:25;8.45;;;3.30;;
46463;SDS011;32161;48.148;-1.554;2024-02-21T10:55:10;8.40;;;3.05;;
46463;SDS011;32161;48.148;-1.554;2024-02-21T10:57:46;7.65;;;3.28;;
46463;SDS011;32161;48.148;-1.554;2024-02-21T11:00:14;14.45;;;4.43;;
46463;SDS011;32161;48.148;-1.554;2024-02-21T11:02:44;8.63;;;2.78;;
46463;SDS011;32161;48.148;-1.554;2024-02-21T11:05:14;8.80;;;2.83;;
46463;SDS011;32161;48.148;-1.554;2024-02-21T11:07:42;9.02;;;2.78;;
46463;SDS011;32161;48.148;-1.554;2024-02-21T11:10:22;10.90;;;2.70;;
46463;SDS011;32161;48.148;-1.554;2024-02-21T11:12:52;8.45;;;2.78;;
46463;SDS011;32161;48.148;-1.554;2024-02-21T11:15:24;7.68;;;2.63;;
46463;SDS011;32161;48.148;-1.554;2024-02-21T11:17:53;6.68;;;2.92;;
46463;SDS011;32161;48.148;-1.554;2024-02-21T11:20:31;8.95;;;2.70;;
46463;SDS011;32161;48.148;-1.554;2024-02-21T11:23:00;10.48;;;3.05;;
46463;SDS011;32161;48.148;-1.554;2024-02-21T11:25:29;5.95;;;2.03;;
46463;SDS011;32161;48.148;-1.554;2024-02-21T11:27:59;7.35;;;2.15;;
46463;SDS011;32161;48.148;-1.554;2024-02-21T11:30:29;7.47;;;1.98;;
46463;SDS011;32161;48.148;-1.554;2024-02-21T11:33:01;7.80;;;2.45;;
46463;SDS011;32161;48.148;-1.554;2024-02-21T11:35:32;5.38;;;2.10;;
46463;SDS011;32161;48.148;-1.554;2024-02-21T11:38:07;8.00;;;2.40;;
46463;SDS011;32161;48.148;-1.554;2024-02-21T11:40:41;5.18;;;2.08;;
46463;SDS011;32161;48.148;-1.554;2024-02-21T11:43:11;9.18;;;2.45;;
46463;SDS011;32161;48.148;-1.554;2024-02-21T11:45:39;7.22;;;2.63;;
46463;SDS011;32161;48.148;-1.554;2024-02-21T11:48:06;3.95;;;2.10;;
46463;SDS011;32161;48.148;-1.554;2024-02-21T11:50:34;8.77;;;2.72;;
46463;SDS011;32161;48.148;-1.554;2024-02-21T11:53:04;10.65;;;2.20;;
46463;SDS011;32161;48.148;-1.554;2024-02-21T11:55:32;5.53;;;1.80;;
46463;SDS011;32161;48.148;-1.554;2024-02-21T11:58:01;14.68;;;3.28;;
46463;SDS011;32161;48.148;-1.554;2024-02-21T12:00:29;8.38;;;2.33;;
46463;SDS011;32161;48.148;-1.554;2024-02-21T12:02:58;6.95;;;2.47;;
46463;SDS011;32161;48.148;-1.554;2024-02-21T12:05:27;7.13;;;2.50;;
46463;SDS011;32161;48.148;-1.554;2024-02-21T12:07:55;6.68;;;2.42;;
46463;SDS011;32161;48.148;-1.554;2024-02-21T12:10:24;6.93;;;2.53;;
46463;SDS011;32161;48.148;-1.554;2024-02-21T12:12:53;6.97;;;2.10;;
46463;SDS011;32161;48.148;-1.554;2024-02-21T12:15:33;6.78;;;1.85;;
46463;SDS011;32161;48.148;-1.554;2024-02-21T12:18:00;6.32;;;2.70;;
46463;SDS011;32161;48.148;-1.554;2024-02-21T12:20:28;14.70;;;3.08;;
46463;SDS011;32161;48.148;-1.554;2024-02-21T12:22:59;5.35;;;1.80;;
46463;SDS011;32161;48.148;-1.554;2024-02-21T12:25:28;4.93;;;1.90;;
46463;SDS011;32161;48.148;-1.554;2024-02-21T12:27:55;10.45;;;2.05;;
46463;SDS011;32161;48.148;-1.554;2024-02-21T12:30:26;8.20;;;2.20;;
46463;SDS011;32161;48.148;-1.554;2024-02-21T12:32:55;3.85;;;1.35;;
46463;SDS011;32161;48.148;-1.554;2024-02-21T12:35:24;8.50;;;1.77;;
46463;SDS011;32161;48.148;-1.554;2024-02-21T12:37:52;7.07;;;1.73;;
46463;SDS011;32161;48.148;-1.554;2024-02-21T12:40:19;5.38;;;1.70;;
46463;SDS011;32161;48.148;-1.554;2024-02-21T12:42:47;9.60;;;2.00;;
46463;SDS011;32161;48.148;-1.554;2024-02-21T12:45:16;5.82;;;2.05;;
46463;SDS011;32161;48.148;-1.554;2024-02-21T12:47:45;11.38;;;2.05;;
46463;SDS011;32161;48.148;-1.554;2024-02-21T12:50:13;10.82;;;2.00;;
46463;SDS011;32161;48.148;-1.554;2024-02-21T12:52:41;9.27;;;2.47;;
46463;SDS011;32161;48.148;-1.554;2024-02-21T12:55:08;5.28;;;2.03;;
46463;SDS011;32161;48.148;-1.554;2024-02-21T12:57:38;12.77;;;2.20;;
46463;SDS011;32161;48.148;-1.554;2024-02-21T13:00:06;12.85;;;2.10;;
46463;SDS011;32161;48.148;-1.554;2024-02-21T13:02:36;6.38;;;2.17;;
46463;SDS011;32161;48.148;-1.554;2024-02-21T13:05:06;8.65;;;1.77;;
46463;SDS011;32161;48.148;-1.554;2024-02-21T13:07:33;6.20;;;2.25;;
46463;SDS011;32161;48.148;-1.554;2024-02-21T13:10:01;8.98;;;2.30;;
46463;SDS011;32161;48.148;-1.554;2024-02-21T13:12:30;8.30;;;2.13;;
46463;SDS011;32161;48.148;-1.554;2024-02-21T13:14:58;9.25;;;2.22;;
46463;SDS011;32161;48.148;-1.554;2024-02-21T13:17:25;12.10;;;3.78;;
46463;SDS011;32161;48.148;-1.554;2024-02-21T13:19:55;11.25;;;4.82;;
46463;SDS011;32161;48.148;-1.554;2024-02-21T13:22:24;7.55;;;3.35;;
46463;SDS011;32161;48.148;-1.554;2024-02-21T13:24:52;9.82;;;2.20;;
46463;SDS011;32161;48.148;-1.554;2024-02-21T13:27:19;8.02;;;2.22;;
46463;SDS011;32161;48.148;-1.554;2024-02-21T13:29:47;6.80;;;1.90;;
46463;SDS011;32161;48.148;-1.554;2024-02-21T13:32:14;7.00;;;2.65;;
46463;SDS011;32161;48.148;-1.554;2024-02-21T13:34:42;7.20;;;2.10;;
46463;SDS011;32161;48.148;-1.554;2024-02-21T13:37:10;6.88;;;2.00;;
46463;SDS011;32161;48.148;-1.554;2024-02-21T13:39:40;9.63;;;3.15;;
46463;SDS011;32161;48.148;-1.554;2024-02-21T13:42:07;7.43;;;2.22;;
46463;SDS011;32161;48.148;-1.554;2024-02-21T13:44:35;9.35;;;2.83;;
46463;SDS011;32161;48.148;-1.554;2024-02-21T13:47:03;7.25;;;3.67;;
46463;SDS011;32161;48.148;-1.554;2024-02-21T13:49:33;10.15;;;2.42;;
46463;SDS011;32161;48.148;-1.554;2024-02-21T13:52:01;15.48;;;2.67;;
46463;SDS011;32161;48.148;-1.554;2024-02-21T13:54:29;7.93;;;2.42;;
46463;SDS011;32161;48.148;-1.554;2024-02-21T13:56:58;8.13;;;2.83;;
46463;SDS011;32161;48.148;-1.554;2024-02-21T13:59:27;8.43;;;2.70;;
46463;SDS011;32161;48.148;-1.554;2024-02-21T14:01:55;8.25;;;2.70;;
46463;SDS011;32161;48.148;-1.554;2024-02-21T14:04:23;7.57;;;2.83;;
46463;SDS011;32161;48.148;-1.554;2024-02-21T14:06:51;11.25;;;2.63;;
46463;SDS011;32161;48.148;-1.554;2024-02-21T14:09:19;7.53;;;2.53;;
46463;SDS011;32161;48.148;-1.554;2024-02-21T14:11:46;9.10;;;2.90;;
46463;SDS011;32161;48.148;-1.554;2024-02-21T14:14:15;14.27;;;3.33;;
46463;SDS011;32161;48.148;-1.554;2024-02-21T14:16:43;7.47;;;2.90;;
46463;SDS011;32161;48.148;-1.554;2024-02-21T14:19:13;8.70;;;2.40;;
46463;SDS011;32161;48.148;-1.554;2024-02-21T14:21:40;6.82;;;3.10;;
46463;SDS011;32161;48.148;-1.554;2024-02-21T14:24:08;17.25;;;4.65;;
46463;SDS011;32161;48.148;-1.554;2024-02-21T14:26:36;12.63;;;4.47;;
46463;SDS011;32161;48.148;-1.554;2024-02-21T14:29:04;9.13;;;2.80;;
46463;SDS011;32161;48.148;-1.554;2024-02-21T14:31:33;10.45;;;3.85;;
46463;SDS011;32161;48.148;-1.554;2024-02-21T14:34:00;7.07;;;2.95;;
46463;SDS011;32161;48.148;-1.554;2024-02-21T14:36:28;9.90;;;2.92;;
46463;SDS011;32161;48.148;-1.554;2024-02-21T14:38:56;7.35;;;2.72;;
46463;SDS011;32161;48.148;-1.554;2024-02-21T14:41:24;8.48;;;2.95;;
46463;SDS011;32161;48.148;-1.554;2024-02-21T14:43:52;8.35;;;2.25;;
46463;SDS011;32161;48.148;-1.554;2024-02-21T14:46:21;7.55;;;2.08;;